createdAt,value
2023-05-21T00:02:05.632Z,78.96
2023-05-21T00:04:32.205Z,79.20
2023-05-21T00:06:58.795Z,78.67
2023-05-21T00:09:25.433Z,78.85
2023-05-21T00:11:52.006Z,78.96
2023-05-21T00:14:18.543Z,78.53
2023-05-21T00:16:45.298Z,79.03
2023-05-21T00:19:11.974Z,78.83
2023-05-21T00:21:38.586Z,79.15
2023-05-21T00:24:06.062Z,79.01
2023-05-21T00:26:32.660Z,79.45
2023-05-21T00:28:59.256Z,79.79
2023-05-21T00:31:25.862Z,79.22
2023-05-21T00:33:52.479Z,79.46
2023-05-21T00:36:19.026Z,80.37
2023-05-21T00:38:45.728Z,80.30
2023-05-21T00:41:12.678Z,79.66
2023-05-21T00:43:39.197Z,80.26
2023-05-21T00:46:07.538Z,79.93
2023-05-21T00:48:34.180Z,79.73
2023-05-21T00:51:00.822Z,80.17
2023-05-21T00:53:27.416Z,79.52
2023-05-21T00:55:54.016Z,80.00
2023-05-21T00:58:20.607Z,80.40
2023-05-21T01:00:47.210Z,79.93
2023-05-21T01:03:13.954Z,80.06
2023-05-21T01:05:40.966Z,79.53
2023-05-21T01:08:07.546Z,80.43
2023-05-21T01:10:34.132Z,79.68
2023-05-21T01:13:00.705Z,80.43
2023-05-21T01:15:27.277Z,80.18
2023-05-21T01:17:53.869Z,79.97
2023-05-21T01:20:20.468Z,80.84
2023-05-21T01:22:54.906Z,80.36
2023-05-21T01:25:22.465Z,79.92
2023-05-21T01:27:49.523Z,79.90
2023-05-21T01:30:16.945Z,80.30
2023-05-21T01:33:04.628Z,79.63
2023-05-21T01:35:33.761Z,79.71
2023-05-21T01:38:24.652Z,79.44
2023-05-21T01:41:00.169Z,79.73
2023-05-21T01:43:27.910Z,80.27
2023-05-21T01:45:55.409Z,80.13
2023-05-21T01:48:23.458Z,80.49
2023-05-21T01:50:50.082Z,80.26
2023-05-21T01:53:16.691Z,80.44
2023-05-21T01:55:43.228Z,80.71
2023-05-21T01:58:09.790Z,80.93
2023-05-21T02:00:36.378Z,81.25
2023-05-21T02:03:03.060Z,81.40
2023-05-21T02:05:29.768Z,81.80
2023-05-21T02:07:56.331Z,81.91
2023-05-21T02:10:22.922Z,81.82
2023-05-21T02:12:49.567Z,81.85
2023-05-21T02:15:16.188Z,82.33
2023-05-21T02:17:42.812Z,82.46
2023-05-21T02:20:09.821Z,82.37
2023-05-21T02:22:36.651Z,82.56
2023-05-21T02:25:03.327Z,82.59
2023-05-21T02:27:29.931Z,82.94
2023-05-21T02:29:56.494Z,83.02
2023-05-21T02:32:23.085Z,83.04
2023-05-21T02:34:49.799Z,82.44
2023-05-21T02:37:16.402Z,83.00
2023-05-21T02:39:42.948Z,82.83
2023-05-21T02:42:09.557Z,82.75
2023-05-21T02:44:36.140Z,83.24
2023-05-21T02:47:02.738Z,83.49
2023-05-21T02:49:29.339Z,83.68
2023-05-21T02:51:55.877Z,83.57
2023-05-21T02:54:22.527Z,83.82
2023-05-21T02:56:49.104Z,83.51
2023-05-21T02:59:15.673Z,84.38
2023-05-21T03:01:42.244Z,84.06
2023-05-21T03:04:08.864Z,84.04
2023-05-21T03:06:35.437Z,84.24
2023-05-21T03:09:02.005Z,84.09
2023-05-21T03:11:28.546Z,84.15
2023-05-21T03:13:55.101Z,84.39
2023-05-21T03:16:21.750Z,84.79
2023-05-21T03:18:48.357Z,84.54
2023-05-21T03:21:15.154Z,84.80
2023-05-21T03:23:42.145Z,84.84
2023-05-21T03:26:08.763Z,85.35
2023-05-21T03:28:35.585Z,84.97
2023-05-21T03:31:02.116Z,84.80
2023-05-21T03:33:28.670Z,85.03
2023-05-21T03:35:55.236Z,85.19
2023-05-21T03:38:21.836Z,84.77
2023-05-21T03:40:48.939Z,85.76
2023-05-21T03:43:15.549Z,85.31
2023-05-21T03:45:44.333Z,85.17
2023-05-21T03:48:11.221Z,85.46
2023-05-21T03:50:37.837Z,85.05
2023-05-21T03:53:04.386Z,86.22
2023-05-21T03:55:30.967Z,85.69
2023-05-21T03:57:57.564Z,86.16
2023-05-21T04:00:24.148Z,85.52
2023-05-21T04:02:50.776Z,85.92
2023-05-21T04:05:17.376Z,85.24
2023-05-21T04:07:43.962Z,86.22
2023-05-21T04:10:10.686Z,85.76
2023-05-21T04:12:37.283Z,85.87
2023-05-21T04:15:04.102Z,85.95
2023-05-21T04:17:30.815Z,86.38
2023-05-21T04:19:57.407Z,86.70
2023-05-21T04:22:23.961Z,85.77
2023-05-21T04:24:50.565Z,85.60
2023-05-21T04:27:17.167Z,86.12
2023-05-21T04:29:43.744Z,85.56
2023-05-21T04:32:10.308Z,85.94
2023-05-21T04:34:36.919Z,85.62
2023-05-21T04:37:03.506Z,85.79
2023-05-21T04:39:30.376Z,85.93
2023-05-21T04:41:56.954Z,85.96
2023-05-21T04:44:23.497Z,86.33
2023-05-21T04:46:50.156Z,85.91
2023-05-21T04:49:16.898Z,85.66
2023-05-21T04:51:43.436Z,85.58
2023-05-21T04:54:10.002Z,86.04
2023-05-21T04:56:36.571Z,85.65
2023-05-21T04:59:05.193Z,85.79
2023-05-21T05:01:33.057Z,85.68
2023-05-21T05:03:59.720Z,85.89
2023-05-21T05:06:26.324Z,86.18
2023-05-21T05:08:52.905Z,85.47
2023-05-21T05:11:19.443Z,85.72
2023-05-21T05:13:46.008Z,84.96
2023-05-21T05:16:12.675Z,85.48
2023-05-21T05:18:39.248Z,85.39
2023-05-21T05:21:05.815Z,85.86
2023-05-21T05:23:32.391Z,86.04
2023-05-21T05:25:59.010Z,86.08
2023-05-21T05:28:25.608Z,85.71
2023-05-21T05:30:52.229Z,85.61
2023-05-21T05:33:18.910Z,85.99
2023-05-21T05:35:45.462Z,85.16
2023-05-21T05:38:12.033Z,85.56
2023-05-21T05:40:38.578Z,85.29
2023-05-21T05:43:05.151Z,85.46
2023-05-21T05:45:31.793Z,85.36
2023-05-21T05:47:58.369Z,85.17
2023-05-21T05:50:24.951Z,84.73
2023-05-21T05:52:51.547Z,84.58
2023-05-21T05:55:18.174Z,84.23
2023-05-21T05:57:45.230Z,84.24
2023-05-21T06:00:12.638Z,84.84
2023-05-21T06:02:39.407Z,83.98
2023-05-21T06:05:06.448Z,83.67
2023-05-21T06:07:33.239Z,84.41
2023-05-21T06:09:59.835Z,83.95
2023-05-21T06:12:26.436Z,82.46
2023-05-21T06:14:53.030Z,83.40
2023-05-21T06:17:19.636Z,83.34
2023-05-21T06:19:46.203Z,82.37
2023-05-21T06:22:12.732Z,82.50
2023-05-21T06:24:39.352Z,81.59
2023-05-21T06:27:06.094Z,81.33
2023-05-21T06:29:32.701Z,80.97
2023-05-21T06:31:59.302Z,80.89
2023-05-21T06:34:25.878Z,80.88
2023-05-21T06:36:52.447Z,80.84
2023-05-21T06:39:19.022Z,80.81
2023-05-21T06:41:45.563Z,80.88
2023-05-21T06:44:12.190Z,80.51
2023-05-21T06:46:38.806Z,80.26
2023-05-21T06:49:05.366Z,80.56
2023-05-21T06:51:31.963Z,80.20
2023-05-21T06:53:58.528Z,80.47
2023-05-21T06:56:25.061Z,80.90
2023-05-21T06:58:51.686Z,80.36
2023-05-21T07:01:18.388Z,80.08
2023-05-21T07:03:45.047Z,79.69
2023-05-21T07:06:11.690Z,79.87
2023-05-21T07:08:38.332Z,79.88
2023-05-21T07:11:04.880Z,79.36
2023-05-21T07:13:31.423Z,79.75
2023-05-21T07:15:58.014Z,79.69
2023-05-21T07:18:24.630Z,79.94
2023-05-21T07:20:51.274Z,79.96
2023-05-21T07:23:17.897Z,78.92
2023-05-21T07:25:44.447Z,78.88
2023-05-21T07:28:11.030Z,78.81
2023-05-21T07:30:37.614Z,78.61
2023-05-21T07:33:04.257Z,78.79
2023-05-21T07:35:30.914Z,78.88
2023-05-21T07:37:57.568Z,78.99
2023-05-21T07:40:24.224Z,78.62
2023-05-21T07:42:50.860Z,78.55
2023-05-21T07:45:17.442Z,78.58
2023-05-21T07:47:45.036Z,78.29
2023-05-21T07:50:12.277Z,77.94
2023-05-21T07:52:38.980Z,77.40
2023-05-21T07:55:06.116Z,77.00
2023-05-21T07:57:32.717Z,76.25
2023-05-21T07:59:59.272Z,76.08
2023-05-21T08:02:25.993Z,76.50
2023-05-21T08:04:52.758Z,76.52
2023-05-21T08:07:19.369Z,76.54
2023-05-21T08:09:45.977Z,76.55
2023-05-21T08:12:12.552Z,75.42
2023-05-21T08:14:39.112Z,75.44
2023-05-21T08:17:05.689Z,74.87
2023-05-21T08:19:32.400Z,74.34
2023-05-21T08:21:59.034Z,74.56
2023-05-21T08:24:25.775Z,75.41
2023-05-21T08:26:52.312Z,74.93
2023-05-21T08:29:18.930Z,74.72
2023-05-21T08:31:45.636Z,75.03
2023-05-21T08:34:12.242Z,74.94
2023-05-21T08:36:38.812Z,74.22
2023-05-21T08:39:05.385Z,74.23
2023-05-21T08:41:31.944Z,74.88
2023-05-21T08:43:58.582Z,74.19
2023-05-21T08:46:25.167Z,73.88
2023-05-21T08:48:51.940Z,73.94
2023-05-21T08:51:18.546Z,73.95
2023-05-21T08:53:45.098Z,74.09
2023-05-21T08:56:11.675Z,73.80
2023-05-21T08:58:40.123Z,73.73
2023-05-21T09:01:06.783Z,74.46
2023-05-21T09:03:33.409Z,74.40
2023-05-21T09:06:00.059Z,74.13
2023-05-21T09:08:34.264Z,73.54
2023-05-21T09:11:01.265Z,74.19
2023-05-21T09:13:27.837Z,74.69
2023-05-21T09:15:54.436Z,73.89
2023-05-21T09:18:21.032Z,73.98
2023-05-21T09:20:47.630Z,73.50
2023-05-21T09:23:17.077Z,73.99
2023-05-21T09:25:46.995Z,73.59
2023-05-21T09:28:17.137Z,73.95
2023-05-21T09:30:52.839Z,73.84
2023-05-21T09:33:26.317Z,73.55
2023-05-21T09:35:53.091Z,73.68
2023-05-21T09:38:21.706Z,73.59
2023-05-21T09:40:48.355Z,72.98
2023-05-21T09:43:15.059Z,72.79
2023-05-21T09:45:51.262Z,73.07
2023-05-21T09:48:17.919Z,72.27
2023-05-21T09:50:44.477Z,71.86
2023-05-21T09:53:13.890Z,71.95
2023-05-21T09:55:40.296Z,71.26
2023-05-21T09:58:06.893Z,71.25
2023-05-21T10:00:33.444Z,70.77
2023-05-21T10:03:05.801Z,69.96
2023-05-21T10:05:32.372Z,68.98
2023-05-21T10:08:03.189Z,69.31
2023-05-21T10:10:31.187Z,68.86
2023-05-21T10:12:59.611Z,68.85
2023-05-21T10:15:26.220Z,68.03
2023-05-21T10:17:52.964Z,68.13
2023-05-21T10:20:19.577Z,67.70
2023-05-21T10:22:46.135Z,67.37
2023-05-21T10:25:13.168Z,66.91
2023-05-21T10:27:39.803Z,66.92
2023-05-21T10:30:06.758Z,66.82
2023-05-21T10:32:33.555Z,66.00
2023-05-21T10:35:01.666Z,65.75
2023-05-21T10:37:28.750Z,65.71
2023-05-21T10:39:55.752Z,65.27
2023-05-21T10:42:31.466Z,65.41
2023-05-21T10:45:36.536Z,65.10
2023-05-21T10:48:24.321Z,64.96
2023-05-21T10:50:55.599Z,65.23
2023-05-21T10:53:23.087Z,65.13
2023-05-21T10:56:10.739Z,63.63
2023-05-21T10:59:05.296Z,62.98
2023-05-21T11:01:34.120Z,62.69
2023-05-21T11:04:00.955Z,62.63
2023-05-21T11:06:27.619Z,62.02
2023-05-21T11:08:55.585Z,61.80
2023-05-21T11:11:41.421Z,60.25
2023-05-21T11:14:36.899Z,60.07
2023-05-21T11:17:06.683Z,59.50
2023-05-21T11:19:37.194Z,60.11
2023-05-21T11:22:08.002Z,60.11
2023-05-21T11:24:38.587Z,60.00
2023-05-21T11:27:05.455Z,60.06
2023-05-21T11:29:35.957Z,59.67
2023-05-21T11:32:02.592Z,59.27
2023-05-21T11:34:37.221Z,58.78
2023-05-21T11:37:18.808Z,58.26
2023-05-21T11:39:45.415Z,58.80
2023-05-21T11:42:12.184Z,58.79
2023-05-21T11:44:42.185Z,59.22
2023-05-21T11:47:09.986Z,58.79
2023-05-21T11:49:36.885Z,58.41
2023-05-21T11:52:04.528Z,58.04
2023-05-21T11:54:31.326Z,57.36
2023-05-21T11:56:58.022Z,57.27
2023-05-21T11:59:24.652Z,57.56
2023-05-21T12:01:51.363Z,57.60
2023-05-21T12:04:18.076Z,57.73
2023-05-21T12:06:44.792Z,57.41
2023-05-21T12:09:12.029Z,58.24
2023-05-21T12:11:38.917Z,58.46
2023-05-21T12:14:09.091Z,58.63
2023-05-21T12:16:35.780Z,58.30
2023-05-21T12:19:03.668Z,58.86
2023-05-21T12:21:30.411Z,59.40
2023-05-21T12:23:57.055Z,59.73
2023-05-21T12:26:24.524Z,60.18
2023-05-21T12:28:52.562Z,60.00
2023-05-21T12:31:20.155Z,60.15
2023-05-21T12:33:50.433Z,60.57
2023-05-21T12:36:32.166Z,60.77
2023-05-21T12:38:58.834Z,60.97
2023-05-21T12:41:26.261Z,60.80
2023-05-21T12:43:52.928Z,60.83
2023-05-21T12:46:19.524Z,60.34
2023-05-21T12:48:55.321Z,60.09
2023-05-21T12:51:22.010Z,59.91
2023-05-21T12:53:48.687Z,60.06
2023-05-21T12:56:15.725Z,60.24
2023-05-21T12:58:42.574Z,59.41
2023-05-21T13:01:10.170Z,59.00
2023-05-21T13:03:38.360Z,58.27
2023-05-21T13:06:08.601Z,59.33
2023-05-21T13:08:35.248Z,59.21
2023-05-21T13:11:04.880Z,58.58
2023-05-21T13:13:31.519Z,58.56
2023-05-21T13:16:00.933Z,58.71
2023-05-21T13:18:27.543Z,59.85
2023-05-21T13:20:54.128Z,60.12
2023-05-21T13:23:20.678Z,60.74
2023-05-21T13:25:47.256Z,60.73
2023-05-21T13:28:13.837Z,61.43
2023-05-21T13:30:40.563Z,61.71
2023-05-21T13:33:07.354Z,61.82
2023-05-21T13:35:33.996Z,61.65
2023-05-21T13:38:00.560Z,61.75
2023-05-21T13:40:27.110Z,62.08
2023-05-21T13:42:53.719Z,62.63
2023-05-21T13:45:20.758Z,62.05
2023-05-21T13:47:47.646Z,61.90
2023-05-21T13:50:14.360Z,62.05
2023-05-21T13:52:40.906Z,61.87
2023-05-21T13:55:08.019Z,61.24
2023-05-21T13:57:35.009Z,61.32
2023-05-21T14:00:01.833Z,61.36
2023-05-21T14:02:28.663Z,60.72
2023-05-21T14:04:55.257Z,60.19
2023-05-21T14:07:21.876Z,60.23
2023-05-21T14:09:49.318Z,59.67
2023-05-21T14:12:15.870Z,59.44
2023-05-21T14:14:42.501Z,59.59
2023-05-21T14:17:09.132Z,59.45
2023-05-21T14:19:35.869Z,59.40
2023-05-21T14:22:02.439Z,58.97
2023-05-21T14:24:29.274Z,58.53
2023-05-21T14:26:55.874Z,58.59
2023-05-21T14:29:22.520Z,59.14
2023-05-21T14:31:49.091Z,59.76
2023-05-21T14:34:15.881Z,60.42
2023-05-21T14:36:42.531Z,59.29
2023-05-21T14:39:09.154Z,59.44
2023-05-21T14:41:39.629Z,59.54
2023-05-21T14:44:06.415Z,58.92
2023-05-21T14:46:33.174Z,58.52
2023-05-21T14:48:59.883Z,59.01
2023-05-21T14:51:26.565Z,59.46
2023-05-21T14:53:53.161Z,59.33
2023-05-21T14:56:19.716Z,59.68
2023-05-21T14:58:46.288Z,59.91
2023-05-21T15:01:12.868Z,59.96
2023-05-21T15:03:39.608Z,60.59
2023-05-21T15:06:06.339Z,60.91
2023-05-21T15:08:32.947Z,60.97
2023-05-21T15:11:00.354Z,61.09
2023-05-21T15:13:26.908Z,60.93
2023-05-21T15:15:53.668Z,61.02
2023-05-21T15:18:20.258Z,60.87
2023-05-21T15:20:46.924Z,60.14
2023-05-21T15:23:17.276Z,60.60
2023-05-21T15:25:45.340Z,60.80
2023-05-21T15:28:12.463Z,60.80
2023-05-21T15:30:39.336Z,61.11
2023-05-21T15:33:05.988Z,61.23
2023-05-21T15:35:32.768Z,60.98
2023-05-21T15:37:59.614Z,60.69
2023-05-21T15:40:27.260Z,60.75
2023-05-21T15:42:54.133Z,60.92
2023-05-21T15:45:20.891Z,60.86
2023-05-21T15:47:47.623Z,61.02
2023-05-21T15:50:14.292Z,61.08
2023-05-21T15:52:41.802Z,60.98
2023-05-21T15:55:09.052Z,60.27
2023-05-21T15:57:35.766Z,59.94
2023-05-21T16:00:02.443Z,59.33
2023-05-21T16:02:29.095Z,58.55
2023-05-21T16:04:55.808Z,57.76
2023-05-21T16:07:23.397Z,58.66
2023-05-21T16:09:50.129Z,59.09
2023-05-21T16:12:16.825Z,59.60
2023-05-21T16:14:43.531Z,59.83
2023-05-21T16:17:10.256Z,60.12
2023-05-21T16:19:37.057Z,60.52
2023-05-21T16:22:03.809Z,61.17
2023-05-21T16:24:30.455Z,61.13
2023-05-21T16:26:57.108Z,61.53
2023-05-21T16:29:23.765Z,61.41
2023-05-21T16:31:50.475Z,61.67
2023-05-21T16:34:17.177Z,61.71
2023-05-21T16:36:43.869Z,61.88
2023-05-21T16:39:10.551Z,62.27
2023-05-21T16:41:37.204Z,61.90
2023-05-21T16:44:03.984Z,61.91
2023-05-21T16:46:30.740Z,62.60
2023-05-21T16:48:57.399Z,62.94
2023-05-21T16:51:24.060Z,63.02
2023-05-21T16:53:50.732Z,63.22
2023-05-21T16:56:17.361Z,63.33
2023-05-21T16:58:44.475Z,63.43
2023-05-21T17:01:11.124Z,63.80
2023-05-21T17:03:38.307Z,63.48
2023-05-21T17:06:05.827Z,63.90
2023-05-21T17:08:32.470Z,63.28
2023-05-21T17:10:59.055Z,63.63
2023-05-21T17:13:25.738Z,64.01
2023-05-21T17:15:52.492Z,63.72
2023-05-21T17:18:19.129Z,63.86
2023-05-21T17:20:45.753Z,64.39
2023-05-21T17:23:12.594Z,64.41
2023-05-21T17:25:39.881Z,64.87
2023-05-21T17:28:06.843Z,64.94
2023-05-21T17:30:33.497Z,65.40
2023-05-21T17:33:00.203Z,65.35
2023-05-21T17:35:26.875Z,65.51
2023-05-21T17:37:53.500Z,64.92
2023-05-21T17:40:20.146Z,65.28
2023-05-21T17:42:47.172Z,65.46
2023-05-21T17:45:13.884Z,65.67
2023-05-21T17:47:40.540Z,66.27
2023-05-21T17:50:07.961Z,66.17
2023-05-21T17:52:34.600Z,66.29
2023-05-21T17:55:01.376Z,66.10
2023-05-21T17:57:27.965Z,66.32
2023-05-21T17:59:54.591Z,66.12
2023-05-21T18:02:21.190Z,66.56
2023-05-21T18:04:47.794Z,66.57
2023-05-21T18:07:14.365Z,66.79
2023-05-21T18:09:40.932Z,67.20
2023-05-21T18:12:07.718Z,67.22
2023-05-21T18:14:34.361Z,67.22
2023-05-21T18:17:01.127Z,67.09
2023-05-21T18:19:27.966Z,67.60
2023-05-21T18:21:54.647Z,67.71
2023-05-21T18:24:21.245Z,67.93
2023-05-21T18:26:48.718Z,68.11
2023-05-21T18:29:15.333Z,68.21
2023-05-21T18:31:43.754Z,68.61
2023-05-21T18:34:10.369Z,69.03
2023-05-21T18:36:36.974Z,69.11
2023-05-21T18:39:03.565Z,69.57
2023-05-21T18:41:30.142Z,69.75
2023-05-21T18:43:56.758Z,69.66
2023-05-21T18:46:23.410Z,69.43
2023-05-21T18:48:50.041Z,70.10
2023-05-21T18:51:16.593Z,70.71
2023-05-21T18:53:43.229Z,71.29
2023-05-21T18:56:09.834Z,71.50
2023-05-21T18:58:36.559Z,71.64
2023-05-21T19:01:03.157Z,71.87
2023-05-21T19:03:29.751Z,72.33
2023-05-21T19:05:56.375Z,72.29
2023-05-21T19:08:23.056Z,72.31
2023-05-21T19:10:50.076Z,73.48
2023-05-21T19:13:16.689Z,73.32
2023-05-21T19:15:43.294Z,73.65
2023-05-21T19:18:09.972Z,73.59
2023-05-21T19:20:37.093Z,73.56
2023-05-21T19:23:03.931Z,73.97
2023-05-21T19:25:30.511Z,74.40
2023-05-21T19:27:57.210Z,74.78
2023-05-21T19:30:23.804Z,75.01
2023-05-21T19:32:50.400Z,75.40
2023-05-21T19:35:17.079Z,75.50
2023-05-21T19:37:43.819Z,75.87
2023-05-21T19:40:10.596Z,75.88
2023-05-21T19:42:37.228Z,76.35
2023-05-21T19:45:04.109Z,76.75
2023-05-21T19:47:30.875Z,76.70
2023-05-21T19:49:57.505Z,77.30
2023-05-21T19:52:24.203Z,77.43
2023-05-21T19:54:50.756Z,77.24
2023-05-21T19:57:17.354Z,77.89
2023-05-21T19:59:43.993Z,77.85
2023-05-21T22:00:51.952Z,81.54
2023-05-21T22:03:18.609Z,81.13
2023-05-21T22:05:45.258Z,81.03
2023-05-21T22:08:11.856Z,81.28
2023-05-21T22:10:38.741Z,81.67
2023-05-21T22:13:05.490Z,81.21
2023-05-21T22:15:32.128Z,81.21
2023-05-21T22:17:59.128Z,80.70
2023-05-21T22:20:25.692Z,81.09
2023-05-21T22:22:54.089Z,81.08
2023-05-21T22:25:21.806Z,81.12
2023-05-21T22:27:48.361Z,81.40
2023-05-21T22:30:15.029Z,81.53
2023-05-21T22:32:41.735Z,81.53
2023-05-21T22:35:09.438Z,81.49
2023-05-21T22:37:36.021Z,81.91
2023-05-21T22:40:02.951Z,81.90
2023-05-21T22:42:29.572Z,81.53
2023-05-21T22:44:56.169Z,81.19
2023-05-21T22:47:22.772Z,81.52
2023-05-21T22:49:49.522Z,81.18
2023-05-21T22:52:16.058Z,81.01
2023-05-21T22:54:42.612Z,80.66
2023-05-21T22:57:09.135Z,81.16
2023-05-21T22:59:35.732Z,80.90
2023-05-21T23:02:02.322Z,80.54
2023-05-21T23:04:42.647Z,80.67
2023-05-21T23:07:10.758Z,79.67
2023-05-21T23:09:37.414Z,79.60
2023-05-21T23:12:04.270Z,79.33
2023-05-21T23:14:30.859Z,78.85
2023-05-21T23:16:57.458Z,78.60
2023-05-21T23:19:24.126Z,78.43
2023-05-21T23:21:50.684Z,78.47
2023-05-21T23:24:17.268Z,77.95
2023-05-21T23:26:43.850Z,78.19
2023-05-21T23:29:10.424Z,77.96
2023-05-21T23:31:37.034Z,77.70
2023-05-21T23:34:03.607Z,78.10
2023-05-21T23:36:30.545Z,77.56
2023-05-21T23:38:57.140Z,76.86
2023-05-21T23:41:23.757Z,77.30
2023-05-21T23:43:50.579Z,77.54
2023-05-21T23:46:17.248Z,77.44
2023-05-21T23:48:43.892Z,77.14
2023-05-21T23:51:10.489Z,76.97
2023-05-21T23:53:37.063Z,76.85
2023-05-21T23:56:03.791Z,76.84
2023-05-21T23:58:30.341Z,77.10
